Time;durP1;ratioP1;P1;durP2;ratioP2;P2;SDS_P1;SDS_P2;PMS_P1;PMS_P2;Temp;Humidity;BMP_temperature;BMP_pressure;BME280_temperature;BME280_humidity;BME280_pressure;Samples;Min_cycle;Max_cycle;Signal;HPM_P1;HPM_P2
2023/03/10 00:00:10;;;;;;;1.20;1.15;;;15.20;74.50;;;;;;938990;148;27479;-80
2023/03/10 00:02:36;;;;;;;2.95;1.40;;;15.20;74.20;;;;;;924104;151;27528;-79
2023/03/10 00:05:02;;;;;;;1.95;1.30;;;15.20;74.30;;;;;;929152;150;27389;-80
2023/03/10 00:07:29;;;;;;;2.55;1.10;;;15.20;74.30;;;;;;910103;153;27443;-80
2023/03/10 00:09:56;;;;;;;2.23;1.43;;;15.20;74.10;;;;;;908311;154;27543;-80
2023/03/10 00:12:24;;;;;;;1.75;1.15;;;15.30;74.20;;;;;;929387;150;27968;-80
2023/03/10 00:14:49;;;;;;;1.47;1.00;;;15.30;74.50;;;;;;909616;153;27373;-80
2023/03/10 00:17:15;;;;;;;1.95;1.50;;;15.30;74.30;;;;;;909578;154;27914;-80
2023/03/10 00:19:42;;;;;;;1.67;1.47;;;15.30;74.40;;;;;;907962;154;27492;-80
2023/03/10 00:22:09;;;;;;;2.05;0.90;;;15.30;74.30;;;;;;912859;153;27535;-81
2023/03/10 00:24:35;;;;;;;2.08;1.10;;;15.30;74.00;;;;;;908953;154;27355;-80
2023/03/10 00:27:02;;;;;;;0.90;0.90;;;15.30;74.00;;;;;;917298;153;27450;-80
2023/03/10 00:29:28;;;;;;;1.85;1.02;;;15.30;74.40;;;;;;909425;154;27346;-79
2023/03/10 00:31:55;;;;;;;2.25;1.12;;;15.20;74.00;;;;;;914937;153;27395;-79
2023/03/10 00:34:21;;;;;;;1.30;0.70;;;15.20;74.40;;;;;;908105;154;27390;-80
2023/03/10 00:36:48;;;;;;;1.42;0.90;;;15.20;74.00;;;;;;909553;153;27459;-80
2023/03/10 00:39:15;;;;;;;1.62;1.20;;;15.20;74.20;;;;;;912258;153;27437;-80
2023/03/10 00:41:41;;;;;;;1.90;0.88;;;15.20;74.60;;;;;;911207;153;27508;-80
2023/03/10 00:44:08;;;;;;;4.12;1.00;;;15.20;74.80;;;;;;910427;152;27489;-79
2023/03/10 00:46:37;;;;;;;1.00;0.98;;;15.20;75.00;;;;;;909685;153;27401;-80
2023/03/10 00:49:01;;;;;;;0.88;0.80;;;15.20;75.30;;;;;;925991;150;27344;-80
2023/03/10 00:51:28;;;;;;;1.57;0.90;;;15.20;75.10;;;;;;925140;153;27422;-80
2023/03/10 00:53:54;;;;;;;2.87;0.80;;;15.20;75.10;;;;;;928176;150;27448;-80
2023/03/10 00:56:24;;;;;;;0.90;0.85;;;15.20;74.80;;;;;;926126;150;27290;-79
2023/03/10 00:58:50;;;;;;;1.17;0.80;;;15.20;75.10;;;;;;926044;151;27370;-80
2023/03/10 01:01:17;;;;;;;1.10;0.80;;;15.20;75.30;;;;;;944514;148;27331;-80
2023/03/10 01:03:44;;;;;;;1.35;0.82;;;15.20;75.30;;;;;;942038;148;27565;-80
2023/03/10 01:06:10;;;;;;;0.70;0.70;;;15.20;75.40;;;;;;942823;148;27323;-79
2023/03/10 01:08:37;;;;;;;2.12;0.90;;;15.30;75.40;;;;;;940000;148;27442;-80
2023/03/10 01:11:03;;;;;;;1.67;1.02;;;15.20;76.60;;;;;;916222;153;27329;-80
2023/03/10 01:13:30;;;;;;;1.22;0.88;;;15.20;76.20;;;;;;918933;153;27415;-80
2023/03/10 01:15:57;;;;;;;1.27;0.60;;;15.20;76.50;;;;;;907450;154;28056;-80
2023/03/10 01:18:23;;;;;;;0.80;0.72;;;15.20;76.60;;;;;;920787;151;27268;-80
2023/03/10 01:20:50;;;;;;;1.20;0.70;;;15.20;76.80;;;;;;921917;153;27400;-81
2023/03/10 01:23:16;;;;;;;0.90;0.53;;;15.20;77.00;;;;;;912833;153;27485;-81
2023/03/10 01:25:43;;;;;;;1.80;0.83;;;15.10;77.20;;;;;;912274;153;27441;-80
2023/03/10 01:28:09;;;;;;;1.10;0.70;;;15.10;77.50;;;;;;907892;153;27547;-80
2023/03/10 01:30:36;;;;;;;1.40;0.60;;;15.00;77.60;;;;;;908113;153;27421;-80
2023/03/10 01:33:03;;;;;;;1.00;0.68;;;15.00;77.80;;;;;;925553;150;27445;-80
2023/03/10 01:35:29;;;;;;;1.25;0.98;;;14.90;77.90;;;;;;926369;153;27550;-80
2023/03/10 01:37:56;;;;;;;0.93;0.80;;;14.90;78.10;;;;;;909401;153;27410;-81
2023/03/10 01:40:22;;;;;;;0.68;0.55;;;14.80;78.20;;;;;;915517;152;27474;-80
2023/03/10 01:42:49;;;;;;;1.90;0.60;;;14.80;78.40;;;;;;913452;153;27348;-80
2023/03/10 01:45:16;;;;;;;0.60;0.53;;;14.80;78.50;;;;;;911301;153;27461;-80
2023/03/10 01:47:42;;;;;;;0.98;0.60;;;14.70;78.80;;;;;;926141;151;27511;-80
2023/03/10 01:50:09;;;;;;;0.85;0.80;;;14.70;78.90;;;;;;911514;153;27482;-80
2023/03/10 01:52:35;;;;;;;1.10;0.90;;;14.70;79.10;;;;;;927269;151;27381;-80
2023/03/10 01:55:02;;;;;;;0.97;0.73;;;14.70;79.40;;;;;;911018;153;27367;-80
2023/03/10 01:57:29;;;;;;;1.10;0.70;;;14.60;79.50;;;;;;927075;151;27403;-80
2023/03/10 01:59:55;;;;;;;1.37;1.00;;;14.60;79.70;;;;;;907953;153;27425;-80
2023/03/10 02:02:22;;;;;;;0.77;0.77;;;14.60;79.70;;;;;;912112;153;27380;-80
2023/03/10 02:04:48;;;;;;;0.80;0.63;;;14.50;79.90;;;;;;926221;150;27338;-80
2023/03/10 02:07:15;;;;;;;1.13;0.70;;;14.50;79.90;;;;;;942192;148;27354;-80
2023/03/10 02:09:44;;;;;;;1.75;0.93;;;14.50;80.20;;;;;;906495;153;27464;-80
2023/03/10 02:12:11;;;;;;;1.45;0.82;;;14.40;80.20;;;;;;905236;155;27432;-80
2023/03/10 02:14:37;;;;;;;1.47;0.70;;;14.40;80.30;;;;;;919761;152;27347;-80
2023/03/10 02:17:04;;;;;;;1.60;0.90;;;14.30;80.70;;;;;;918211;152;27408;-80
2023/03/10 02:19:30;;;;;;;0.97;0.60;;;14.30;80.80;;;;;;920067;151;27505;-80
2023/03/10 02:22:03;;;;;;;0.70;0.70;;;14.30;81.70;;;;;;921304;151;27405;-81
2023/03/10 02:24:35;;;;;;;0.60;0.60;;;14.30;81.20;;;;;;918069;152;27365;-80
2023/03/10 02:27:17;;;;;;;1.40;0.78;;;14.20;81.40;;;;;;917768;152;27469;-80
2023/03/10 02:29:46;;;;;;;1.10;0.73;;;14.20;81.50;;;;;;919010;152;27466;-80
2023/03/10 02:32:13;;;;;;;1.40;0.93;;;14.10;81.60;;;;;;918718;152;27494;-80
2023/03/10 02:34:39;;;;;;;0.70;0.70;;;14.10;81.80;;;;;;920028;152;27391;-81
2023/03/10 02:37:06;;;;;;;1.47;1.00;;;14.10;82.10;;;;;;917193;152;27484;-80
2023/03/10 02:39:32;;;;;;;2.73;0.63;;;14.00;82.10;;;;;;918477;152;27485;-80
2023/03/10 02:41:59;;;;;;;0.47;0.47;;;14.00;82.50;;;;;;919183;152;27303;-80
2023/03/10 02:44:26;;;;;;;0.88;0.80;;;14.00;82.80;;;;;;919105;152;27810;-80
2023/03/10 02:46:52;;;;;;;1.33;0.80;;;13.90;83.00;;;;;;919205;152;27488;-80
2023/03/10 02:49:19;;;;;;;0.77;0.77;;;13.90;83.20;;;;;;916947;152;27516;-80
2023/03/10 02:51:45;;;;;;;1.07;0.60;;;13.90;83.30;;;;;;916647;152;28119;-81
2023/03/10 02:54:12;;;;;;;1.30;1.20;;;13.90;84.20;;;;;;918997;152;27356;-80
2023/03/10 02:56:39;;;;;;;0.73;0.57;;;13.90;83.30;;;;;;916946;152;27490;-80
2023/03/10 02:59:05;;;;;;;0.73;0.73;;;13.80;83.60;;;;;;917587;152;27400;-80
2023/03/10 03:01:32;;;;;;;0.73;0.67;;;13.80;83.50;;;;;;918666;152;27524;-80
2023/03/10 03:03:58;;;;;;;1.07;0.85;;;13.80;83.70;;;;;;917731;152;27459;-80
2023/03/10 03:06:25;;;;;;;1.63;0.80;;;13.80;83.70;;;;;;917450;152;27438;-80
2023/03/10 03:08:51;;;;;;;0.63;0.60;;;13.80;84.20;;;;;;918935;152;27405;-80
2023/03/10 03:11:18;;;;;;;0.77;0.70;;;13.80;84.50;;;;;;919394;152;27401;-80
2023/03/10 03:13:47;;;;;;;0.70;0.70;;;13.80;84.40;;;;;;918450;152;27439;-77
2023/03/10 03:16:12;;;;;;;1.05;0.70;;;13.80;84.80;;;;;;916527;152;27414;-75
2023/03/10 03:18:38;;;;;;;1.07;0.63;;;13.80;85.10;;;;;;918571;152;27343;-75
2023/03/10 03:21:09;;;;;;;0.67;0.67;;;13.80;85.10;;;;;;919272;152;27472;-75
2023/03/10 03:23:34;;;;;;;0.50;0.50;;;13.80;85.70;;;;;;918033;152;27508;-75
2023/03/10 03:26:00;;;;;;;0.50;0.43;;;13.80;85.70;;;;;;918302;152;27328;-75
2023/03/10 03:28:27;;;;;;;1.10;0.53;;;13.80;85.80;;;;;;918374;152;27444;-75
2023/03/10 03:30:53;;;;;;;0.90;0.60;;;13.80;86.40;;;;;;919374;152;27343;-75
2023/03/10 03:33:20;;;;;;;0.50;0.50;;;13.70;86.60;;;;;;917428;152;27433;-75
2023/03/10 03:35:47;;;;;;;0.67;0.67;;;13.70;86.40;;;;;;918373;152;27324;-75
2023/03/10 03:38:13;;;;;;;0.50;0.40;;;13.70;86.60;;;;;;916837;152;27377;-75
2023/03/10 03:40:40;;;;;;;1.47;1.00;;;13.70;86.80;;;;;;918442;152;27655;-75
2023/03/10 03:43:06;;;;;;;1.40;0.87;;;13.70;86.90;;;;;;918847;152;27530;-75
2023/03/10 03:45:33;;;;;;;0.83;0.67;;;13.70;87.00;;;;;;918140;152;27364;-75
2023/03/10 03:48:00;;;;;;;1.37;0.70;;;13.60;87.10;;;;;;919899;152;27457;-75
2023/03/10 03:50:26;;;;;;;0.63;0.50;;;13.60;87.30;;;;;;918066;152;27429;-75
2023/03/10 03:52:53;;;;;;;5.10;1.77;;;13.60;87.30;;;;;;919242;152;27460;-75
2023/03/10 03:55:19;;;;;;;0.73;0.60;;;13.60;87.40;;;;;;918190;152;27510;-75
2023/03/10 03:57:46;;;;;;;0.93;0.65;;;13.60;87.80;;;;;;918639;152;27368;-75
2023/03/10 04:00:15;;;;;;;0.70;0.70;;;13.60;88.20;;;;;;918036;152;27293;-75
2023/03/10 04:02:42;;;;;;;1.00;0.87;;;13.60;88.10;;;;;;915511;152;27427;-75
2023/03/10 04:05:08;;;;;;;1.87;0.60;;;13.60;88.40;;;;;;919040;152;27494;-75
2023/03/10 04:07:35;;;;;;;1.80;0.53;;;13.60;88.80;;;;;;923110;151;27697;-75
2023/03/10 04:10:02;;;;;;;0.60;0.60;;;13.60;88.50;;;;;;922915;151;27412;-75
2023/03/10 04:12:28;;;;;;;0.50;0.50;;;13.50;88.50;;;;;;925300;151;27396;-75
2023/03/10 04:14:55;;;;;;;1.90;0.77;;;13.50;88.50;;;;;;930929;150;27474;-75
2023/03/10 04:17:21;;;;;;;2.50;1.07;;;13.40;88.50;;;;;;928027;150;27397;-75
2023/03/10 04:19:48;;;;;;;0.70;0.70;;;13.30;88.90;;;;;;929089;150;27379;-75
2023/03/10 04:22:15;;;;;;;0.77;0.77;;;13.30;89.20;;;;;;929231;150;27339;-75
2023/03/10 04:24:41;;;;;;;1.10;0.70;;;13.20;89.60;;;;;;930362;150;27450;-75
2023/03/10 04:27:10;;;;;;;0.60;0.50;;;13.20;90.10;;;;;;928465;150;27422;-75
2023/03/10 04:29:34;;;;;;;0.87;0.70;;;13.20;90.20;;;;;;930115;150;27465;-75
2023/03/10 04:32:01;;;;;;;4.47;0.90;;;13.20;90.40;;;;;;927266;150;27331;-75
2023/03/10 04:34:28;;;;;;;1.77;0.90;;;13.20;90.40;;;;;;928264;150;27352;-75
2023/03/10 04:36:54;;;;;;;1.27;0.60;;;13.20;90.40;;;;;;929859;150;27425;-75
2023/03/10 04:39:21;;;;;;;0.77;0.53;;;13.20;90.40;;;;;;929667;150;27750;-75
2023/03/10 04:41:47;;;;;;;1.37;0.80;;;13.30;90.40;;;;;;930004;150;27452;-75
2023/03/10 04:44:14;;;;;;;2.23;1.10;;;13.30;90.50;;;;;;931252;150;27375;-75
2023/03/10 04:46:40;;;;;;;1.23;0.70;;;13.30;90.40;;;;;;928139;150;27410;-75
2023/03/10 04:49:07;;;;;;;1.50;0.83;;;13.30;90.30;;;;;;929461;150;27504;-75
2023/03/10 04:51:34;;;;;;;1.23;0.83;;;13.40;90.30;;;;;;928021;150;27333;-75
2023/03/10 04:54:00;;;;;;;2.20;1.10;;;13.40;90.30;;;;;;930698;150;27346;-75
2023/03/10 04:56:27;;;;;;;1.60;1.10;;;13.40;90.10;;;;;;930710;150;27376;-75
2023/03/10 04:58:53;;;;;;;2.27;1.47;;;13.40;90.10;;;;;;929252;150;27512;-75
2023/03/10 05:01:20;;;;;;;3.87;1.30;;;13.50;90.10;;;;;;930546;148;27384;-75
2023/03/10 05:03:47;;;;;;;2.03;1.00;;;13.50;90.00;;;;;;929177;150;27865;-75
2023/03/10 05:06:16;;;;;;;3.00;0.80;;;13.50;90.00;;;;;;929249;150;27356;-75
2023/03/10 05:08:43;;;;;;;1.73;0.80;;;13.50;89.60;;;;;;923730;151;27557;-75
2023/03/10 05:11:09;;;;;;;2.27;0.90;;;13.60;89.60;;;;;;939579;148;27393;-75
2023/03/10 05:13:36;;;;;;;1.55;0.80;;;13.60;89.30;;;;;;923644;151;27287;-75
2023/03/10 05:16:02;;;;;;;2.33;0.97;;;13.60;89.10;;;;;;922963;151;27433;-75
2023/03/10 05:18:29;;;;;;;1.90;0.83;;;13.60;88.90;;;;;;938660;148;27365;-75
2023/03/10 05:20:56;;;;;;;2.10;1.00;;;13.60;88.80;;;;;;924092;151;27390;-75
2023/03/10 05:23:22;;;;;;;2.77;1.07;;;13.60;88.60;;;;;;923194;151;27372;-75
2023/03/10 05:25:49;;;;;;;2.05;0.85;;;13.60;88.60;;;;;;938808;148;27444;-75
2023/03/10 05:28:15;;;;;;;2.00;0.70;;;13.60;88.50;;;;;;924351;151;27434;-75
2023/03/10 05:30:42;;;;;;;2.83;0.82;;;13.60;88.50;;;;;;919038;152;27376;-75
2023/03/10 05:33:09;;;;;;;1.43;0.90;;;13.60;88.50;;;;;;903705;154;27483;-75
2023/03/10 05:35:35;;;;;;;3.17;1.60;;;13.60;88.50;;;;;;917852;152;27476;-75
2023/03/10 05:38:02;;;;;;;1.20;0.93;;;13.60;88.70;;;;;;903083;154;27523;-75
2023/03/10 05:40:28;;;;;;;1.50;0.90;;;13.50;88.60;;;;;;918752;152;27888;-75
2023/03/10 05:42:55;;;;;;;1.67;1.00;;;13.60;88.70;;;;;;919508;152;27548;-75
2023/03/10 05:45:21;;;;;;;2.30;1.10;;;13.60;88.70;;;;;;919172;152;27374;-75
2023/03/10 05:47:48;;;;;;;1.80;0.90;;;13.60;88.80;;;;;;919870;152;27448;-75
2023/03/10 05:50:15;;;;;;;1.85;0.70;;;13.60;88.80;;;;;;918509;152;27412;-75
2023/03/10 05:52:41;;;;;;;2.20;0.83;;;13.50;88.60;;;;;;903484;155;27433;-75
2023/03/10 05:55:08;;;;;;;0.70;0.63;;;13.50;88.60;;;;;;917301;152;27365;-75
2023/03/10 05:57:34;;;;;;;1.20;1.00;;;13.50;88.60;;;;;;904171;155;27365;-75
2023/03/10 06:00:01;;;;;;;1.97;0.90;;;13.50;88.60;;;;;;904523;155;27315;-75
2023/03/10 06:02:28;;;;;;;2.77;1.07;;;13.50;88.80;;;;;;904794;154;27433;-75
2023/03/10 06:04:54;;;;;;;0.97;0.83;;;13.50;89.00;;;;;;918719;152;27393;-75
2023/03/10 06:07:21;;;;;;;1.70;0.90;;;13.50;89.40;;;;;;920278;151;27392;-75
2023/03/10 06:09:47;;;;;;;1.03;0.87;;;13.50;89.60;;;;;;927600;150;27387;-76
2023/03/10 06:12:14;;;;;;;1.67;1.03;;;13.50;89.70;;;;;;909732;153;27448;-75
2023/03/10 06:14:41;;;;;;;1.50;1.00;;;13.50;90.00;;;;;;910025;153;28008;-75
2023/03/10 06:17:07;;;;;;;2.63;1.23;;;13.50;90.00;;;;;;926794;151;27307;-75
2023/03/10 06:19:34;;;;;;;1.97;0.93;;;13.50;90.10;;;;;;910373;153;27309;-75
2023/03/10 06:22:00;;;;;;;1.77;0.90;;;13.50;90.10;;;;;;925654;151;27361;-75
2023/03/10 06:24:27;;;;;;;1.27;1.00;;;13.40;90.20;;;;;;930416;150;27406;-75
2023/03/10 06:26:53;;;;;;;2.40;1.10;;;13.40;90.30;;;;;;926451;151;27316;-76
2023/03/10 06:29:20;;;;;;;2.53;1.00;;;13.40;90.40;;;;;;910271;153;27455;-75
2023/03/10 06:31:47;;;;;;;0.80;0.70;;;13.40;90.60;;;;;;910183;153;27492;-75
2023/03/10 06:34:13;;;;;;;2.70;1.20;;;13.40;90.80;;;;;;925175;151;27435;-76
2023/03/10 06:36:40;;;;;;;1.70;1.27;;;13.40;91.20;;;;;;928698;150;27411;-76
2023/03/10 06:39:06;;;;;;;3.07;1.27;;;13.40;91.00;;;;;;926837;151;27454;-75
2023/03/10 06:41:33;;;;;;;3.03;1.00;;;13.40;91.10;;;;;;928917;151;27472;-76
2023/03/10 06:44:00;;;;;;;2.30;1.00;;;13.40;91.50;;;;;;912527;153;27403;-75
2023/03/10 06:46:27;;;;;;;1.23;0.70;;;13.40;91.30;;;;;;925346;153;27382;-75
2023/03/10 06:48:53;;;;;;;1.37;1.07;;;13.40;91.50;;;;;;910715;153;27395;-75
2023/03/10 06:51:19;;;;;;;3.43;1.13;;;13.40;91.50;;;;;;910234;152;27434;-75
2023/03/10 06:53:46;;;;;;;3.60;1.13;;;13.50;91.70;;;;;;914605;153;27502;-76
2023/03/10 06:56:15;;;;;;;3.63;1.23;;;13.40;91.80;;;;;;909922;153;27415;-75
2023/03/10 06:58:42;;;;;;;2.83;1.17;;;13.50;92.00;;;;;;923767;151;27371;-75
2023/03/10 07:01:08;;;;;;;3.90;1.20;;;13.50;92.10;;;;;;911102;153;27426;-75
2023/03/10 07:03:35;;;;;;;3.98;1.07;;;13.50;92.20;;;;;;927793;151;27384;-75
2023/03/10 07:06:01;;;;;;;3.37;1.33;;;13.50;92.30;;;;;;910300;153;27440;-75
2023/03/10 07:08:28;;;;;;;2.70;1.10;;;13.50;92.50;;;;;;925700;150;27407;-75
2023/03/10 07:10:55;;;;;;;2.60;1.23;;;13.50;92.70;;;;;;908769;153;27662;-75
2023/03/10 07:13:21;;;;;;;1.77;1.10;;;13.50;92.90;;;;;;919200;153;27377;-75
2023/03/10 07:15:48;;;;;;;3.33;1.27;;;13.50;92.90;;;;;;918455;153;27499;-75
2023/03/10 07:18:14;;;;;;;2.53;1.27;;;13.50;93.00;;;;;;910070;153;27421;-75
2023/03/10 07:20:41;;;;;;;4.57;1.73;;;13.50;93.30;;;;;;926497;151;27307;-76
2023/03/10 07:23:08;;;;;;;4.00;1.50;;;13.50;93.50;;;;;;925705;151;27382;-75
2023/03/10 07:25:34;;;;;;;2.37;1.37;;;13.50;93.50;;;;;;908263;153;27386;-75
2023/03/10 07:28:01;;;;;;;3.90;1.10;;;13.50;93.50;;;;;;919262;153;27392;-75
2023/03/10 07:30:27;;;;;;;3.60;1.40;;;13.60;93.60;;;;;;909937;153;27382;-76
2023/03/10 07:32:54;;;;;;;2.23;1.20;;;13.60;93.70;;;;;;910636;153;27429;-75
2023/03/10 07:35:20;;;;;;;4.17;1.50;;;13.70;93.50;;;;;;918677;153;27336;-75
2023/03/10 07:37:47;;;;;;;5.10;1.90;;;13.70;93.50;;;;;;909873;152;27412;-75
2023/03/10 07:40:14;;;;;;;3.77;1.50;;;13.80;93.60;;;;;;914808;153;27872;-75
2023/03/10 07:42:40;;;;;;;3.40;1.37;;;13.80;93.60;;;;;;909435;153;27401;-75
2023/03/10 07:45:07;;;;;;;3.35;1.40;;;13.90;93.40;;;;;;924281;151;27352;-76
2023/03/10 07:47:33;;;;;;;5.03;1.90;;;13.90;93.30;;;;;;908913;153;27505;-75
2023/03/10 07:50:00;;;;;;;3.60;1.47;;;13.90;93.10;;;;;;924863;151;27399;-75
2023/03/10 07:52:27;;;;;;;2.55;1.20;;;13.90;92.80;;;;;;925174;151;27414;-76
2023/03/10 07:54:53;;;;;;;4.07;1.50;;;14.00;92.80;;;;;;925318;151;27324;-76
2023/03/10 07:57:20;;;;;;;3.60;1.33;;;14.00;93.00;;;;;;926180;151;27358;-75
2023/03/10 07:59:46;;;;;;;2.70;1.45;;;14.10;93.00;;;;;;926952;151;27862;-75
2023/03/10 08:02:13;;;;;;;2.47;1.50;;;14.10;93.00;;;;;;907727;153;27488;-76
2023/03/10 08:04:39;;;;;;;3.00;1.20;;;14.20;92.90;;;;;;909754;153;27357;-75
2023/03/10 08:07:06;;;;;;;2.08;1.45;;;14.30;92.80;;;;;;910074;153;27405;-76
2023/03/10 08:09:33;;;;;;;3.55;1.50;;;14.30;92.50;;;;;;906421;153;27445;-75
2023/03/10 08:11:59;;;;;;;2.67;1.15;;;14.40;92.10;;;;;;904012;154;27408;-76
2023/03/10 08:14:29;;;;;;;2.85;1.52;;;14.40;91.90;;;;;;919481;152;27337;-75
2023/03/10 08:16:55;;;;;;;3.12;1.42;;;14.50;91.60;;;;;;918743;152;27528;-75
2023/03/10 08:19:24;;;;;;;3.22;1.62;;;14.50;91.40;;;;;;904630;155;27481;-76
2023/03/10 08:21:52;;;;;;;3.45;1.90;;;14.60;91.00;;;;;;904139;154;27476;-76
2023/03/10 08:24:18;;;;;;;3.33;1.83;;;14.60;90.70;;;;;;908185;154;27411;-76
2023/03/10 08:26:44;;;;;;;2.60;1.22;;;14.70;90.60;;;;;;903259;155;27360;-75
2023/03/10 08:29:11;;;;;;;5.00;2.00;;;14.70;90.40;;;;;;904392;153;27545;-75
2023/03/10 08:31:37;;;;;;;5.58;1.75;;;14.70;90.30;;;;;;903187;154;27412;-76
2023/03/10 08:34:04;;;;;;;2.12;1.17;;;14.80;90.10;;;;;;919114;152;27297;-75
2023/03/10 08:36:31;;;;;;;1.42;1.27;;;14.80;89.90;;;;;;923677;151;27412;-76
2023/03/10 08:38:59;;;;;;;3.37;1.57;;;14.90;89.20;;;;;;923686;151;27453;-75
2023/03/10 08:41:36;;;;;;;4.20;2.00;;;14.90;88.50;;;;;;923606;151;27399;-75
2023/03/10 08:44:02;;;;;;;2.20;1.80;;;15.00;86.60;;;;;;921928;151;27352;-75
2023/03/10 08:46:29;;;;;;;2.45;1.50;;;15.00;86.20;;;;;;926533;151;27377;-76
2023/03/10 08:48:55;;;;;;;1.82;1.32;;;15.00;85.00;;;;;;925760;151;27444;-76
2023/03/10 08:51:22;;;;;;;1.45;0.82;;;15.00;85.10;;;;;;923756;151;27404;-76
2023/03/10 08:53:49;;;;;;;1.62;0.95;;;15.00;83.80;;;;;;922296;151;27343;-75
2023/03/10 08:56:15;;;;;;;1.80;1.00;;;15.00;82.80;;;;;;924187;151;27336;-75
2023/03/10 08:58:42;;;;;;;1.27;0.62;;;15.00;82.50;;;;;;922636;151;27421;-75
2023/03/10 09:01:08;;;;;;;1.32;1.07;;;15.00;83.00;;;;;;923977;151;27426;-75
2023/03/10 09:03:35;;;;;;;1.90;1.00;;;15.00;82.90;;;;;;923242;151;27471;-76
2023/03/10 09:06:02;;;;;;;1.05;0.80;;;15.00;83.10;;;;;;923300;151;27344;-76
2023/03/10 09:08:28;;;;;;;1.57;0.60;;;15.00;82.90;;;;;;925209;151;27418;-75
2023/03/10 09:10:55;;;;;;;1.32;0.68;;;15.00;82.80;;;;;;922621;151;27437;-76
2023/03/10 09:13:21;;;;;;;1.02;0.60;;;15.00;81.80;;;;;;924223;151;27410;-76
2023/03/10 09:15:49;;;;;;;0.60;0.53;;;15.00;82.20;;;;;;922548;151;27455;-75
2023/03/10 09:18:15;;;;;;;0.65;0.50;;;15.00;82.10;;;;;;924311;151;27462;-76
2023/03/10 09:20:41;;;;;;;1.42;0.70;;;15.10;81.80;;;;;;923982;151;27434;-75
2023/03/10 09:23:08;;;;;;;2.65;0.80;;;15.10;80.60;;;;;;923122;151;27729;-76
2023/03/10 09:25:34;;;;;;;1.67;0.80;;;15.20;81.20;;;;;;923204;151;27516;-76
2023/03/10 09:28:01;;;;;;;2.30;1.10;;;15.30;82.10;;;;;;924786;150;27712;-76
2023/03/10 09:30:27;;;;;;;2.00;1.30;;;15.30;81.40;;;;;;926299;151;27369;-76
2023/03/10 09:32:54;;;;;;;1.55;1.00;;;15.50;81.20;;;;;;923378;151;27485;-76
2023/03/10 09:35:21;;;;;;;2.62;1.10;;;15.70;81.30;;;;;;924010;151;27390;-76
2023/03/10 09:37:47;;;;;;;2.35;1.10;;;15.80;80.40;;;;;;925168;151;27389;-76
2023/03/10 09:40:20;;;;;;;2.35;1.05;;;16.00;79.50;;;;;;924589;151;27396;-76
2023/03/10 09:42:46;;;;;;;2.58;0.93;;;16.20;78.90;;;;;;922507;151;27481;-76
2023/03/10 09:45:19;;;;;;;1.40;1.10;;;16.50;78.90;;;;;;924851;151;27407;-76
2023/03/10 09:47:48;;;;;;;2.22;1.00;;;16.70;76.70;;;;;;923583;151;27420;-76
2023/03/10 09:50:27;;;;;;;4.20;1.07;;;16.90;77.40;;;;;;924267;151;27361;-76
2023/03/10 09:52:56;;;;;;;1.90;1.00;;;17.00;76.50;;;;;;921924;151;27468;-76
2023/03/10 09:55:22;;;;;;;1.52;0.80;;;17.10;74.80;;;;;;917469;152;27386;-76
2023/03/10 09:57:49;;;;;;;1.85;1.00;;;17.10;73.20;;;;;;904306;155;27374;-76
2023/03/10 10:00:16;;;;;;;1.22;0.70;;;17.10;73.80;;;;;;920230;152;27470;-76
2023/03/10 10:02:42;;;;;;;0.82;0.70;;;17.00;73.30;;;;;;917524;152;27377;-76
2023/03/10 10:05:12;;;;;;;1.87;0.68;;;16.90;73.00;;;;;;919279;152;27431;-76
2023/03/10 10:07:50;;;;;;;0.82;0.60;;;16.70;72.50;;;;;;925923;151;27294;-76
2023/03/10 10:10:20;;;;;;;0.70;0.60;;;16.60;73.00;;;;;;912107;153;27459;-76
2023/03/10 10:12:46;;;;;;;1.62;1.00;;;16.40;73.30;;;;;;908763;153;27425;-76
2023/03/10 10:15:13;;;;;;;1.32;0.78;;;16.30;73.70;;;;;;917518;153;27422;-76
2023/03/10 10:17:41;;;;;;;1.07;0.70;;;16.20;74.20;;;;;;917847;153;28067;-76
2023/03/10 10:20:07;;;;;;;2.22;0.53;;;16.20;75.00;;;;;;907807;153;27427;-76
2023/03/10 10:22:34;;;;;;;1.40;0.65;;;16.20;75.60;;;;;;924787;151;27309;-76
2023/03/10 10:25:08;;;;;;;2.20;0.82;;;16.30;76.20;;;;;;908907;153;27497;-76
2023/03/10 10:27:35;;;;;;;1.47;0.70;;;16.40;76.00;;;;;;917676;153;27321;-76
2023/03/10 10:30:38;;;;;;;1.87;0.68;;;16.50;74.70;;;;;;918532;153;27466;-76
2023/03/10 10:33:05;;;;;;;1.00;0.70;;;16.50;74.50;;;;;;909808;153;27456;-77
2023/03/10 10:35:34;;;;;;;0.70;0.50;;;16.50;74.00;;;;;;908799;153;27294;-76
2023/03/10 10:38:06;;;;;;;0.90;0.60;;;16.50;74.10;;;;;;909532;154;27522;-75
2023/03/10 10:40:33;;;;;;;0.90;0.68;;;16.50;73.30;;;;;;905556;154;27357;-75
2023/03/10 10:43:04;;;;;;;1.50;0.70;;;16.40;73.40;;;;;;918871;153;27381;-76
2023/03/10 10:45:34;;;;;;;1.17;0.60;;;16.40;73.60;;;;;;909641;153;27388;-76
2023/03/10 10:48:01;;;;;;;1.10;0.70;;;16.30;74.00;;;;;;917639;153;27355;-76
2023/03/10 10:50:30;;;;;;;1.55;0.75;;;16.40;74.40;;;;;;910768;153;27423;-76
2023/03/10 10:53:18;;;;;;;1.35;0.70;;;16.40;73.90;;;;;;925474;151;28022;-76
2023/03/10 10:55:45;;;;;;;1.90;1.10;;;16.50;74.60;;;;;;924953;151;27354;-76
2023/03/10 10:58:23;;;;;;;1.75;0.72;;;16.50;74.90;;;;;;918715;153;27408;-76
2023/03/10 11:00:57;;;;;;;1.98;0.90;;;16.60;74.20;;;;;;914149;153;27453;-76
2023/03/10 11:03:25;;;;;;;1.82;0.90;;;16.70;74.40;;;;;;911715;153;27462;-76
2023/03/10 11:05:52;;;;;;;1.35;0.80;;;16.70;73.90;;;;;;924629;151;27376;-75
2023/03/10 11:08:34;;;;;;;0.90;0.75;;;16.70;73.80;;;;;;910148;153;27449;-76
2023/03/10 11:11:00;;;;;;;4.03;1.00;;;16.80;74.00;;;;;;912891;153;27390;-76
2023/03/10 11:13:32;;;;;;;1.40;0.80;;;16.80;73.30;;;;;;909955;153;27403;-75
2023/03/10 11:16:23;;;;;;;2.25;1.17;;;16.70;73.00;;;;;;883849;153;27515;-75
2023/03/10 11:18:51;;;;;;;1.10;0.95;;;16.70;73.50;;;;;;907320;153;27547;-75
2023/03/10 11:21:16;;;;;;;1.52;0.60;;;16.70;73.20;;;;;;924807;151;27423;-76
2023/03/10 11:23:54;;;;;;;0.50;0.40;;;16.60;73.20;;;;;;906076;153;27471;-75
2023/03/10 11:26:29;;;;;;;2.27;0.72;;;16.60;73.20;;;;;;908464;153;27406;-76
2023/03/10 11:29:06;;;;;;;0.90;0.75;;;16.40;73.20;;;;;;924651;151;27392;-76
2023/03/10 11:31:40;;;;;;;1.57;0.50;;;16.20;73.70;;;;;;919803;151;27428;-75
2023/03/10 11:34:24;;;;;;;1.57;0.70;;;16.10;74.70;;;;;;927371;153;27467;-75
2023/03/10 11:36:51;;;;;;;2.37;0.50;;;15.90;75.90;;;;;;926499;153;27406;-76
2023/03/10 11:39:45;;;;;;;1.12;0.50;;;15.80;77.30;;;;;;925154;153;27459;-75
2023/03/10 11:42:26;;;;;;;0.60;0.47;;;15.70;78.20;;;;;;924955;153;27451;-76
2023/03/10 11:45:24;;;;;;;1.00;0.37;;;15.80;78.80;;;;;;923745;151;27363;-76
2023/03/10 11:48:08;;;;;;;1.12;0.53;;;15.80;78.70;;;;;;926696;153;27470;-76
2023/03/10 11:50:37;;;;;;;0.65;0.40;;;15.80;78.30;;;;;;925221;153;27387;-76
2023/03/10 11:53:16;;;;;;;0.42;0.42;;;15.80;77.90;;;;;;908229;153;27473;-75
2023/03/10 11:55:42;;;;;;;0.98;0.82;;;15.80;77.90;;;;;;908275;153;27399;-76
2023/03/10 11:58:15;;;;;;;1.30;1.07;;;15.80;77.90;;;;;;909544;153;27383;-75
2023/03/10 12:00:42;;;;;;;1.60;0.80;;;15.80;78.00;;;;;;882976;153;27445;-75
2023/03/10 12:03:20;;;;;;;1.42;0.75;;;15.80;78.10;;;;;;909071;153;27337;-75
2023/03/10 12:05:52;;;;;;;0.62;0.45;;;15.80;77.90;;;;;;909147;153;27430;-75
2023/03/10 12:08:19;;;;;;;0.68;0.55;;;15.80;77.50;;;;;;920776;150;27451;-75
2023/03/10 12:10:48;;;;;;;0.50;0.50;;;15.70;77.40;;;;;;908249;153;27440;-75
2023/03/10 12:13:15;;;;;;;1.65;0.45;;;15.70;77.10;;;;;;903021;154;27493;-76
2023/03/10 12:15:42;;;;;;;0.30;0.28;;;15.70;77.20;;;;;;920879;151;27485;-76
2023/03/10 12:18:08;;;;;;;1.45;0.60;;;15.70;77.30;;;;;;938749;148;27383;-75
2023/03/10 12:20:35;;;;;;;0.98;0.50;;;15.70;77.30;;;;;;924759;151;27394;-76
2023/03/10 12:23:10;;;;;;;0.45;0.40;;;15.70;77.60;;;;;;904621;154;27306;-75
2023/03/10 12:25:37;;;;;;;0.57;0.57;;;15.70;77.70;;;;;;902134;155;27423;-75
2023/03/10 12:28:15;;;;;;;0.95;0.57;;;15.70;77.50;;;;;;903754;155;27514;-75
2023/03/10 12:30:48;;;;;;;0.85;0.50;;;15.80;77.00;;;;;;911860;154;27378;-75
2023/03/10 12:33:33;;;;;;;1.55;0.57;;;15.80;76.80;;;;;;902909;155;27456;-75
2023/03/10 12:36:20;;;;;;;0.53;0.50;;;15.80;76.30;;;;;;906161;155;27451;-76
2023/03/10 12:38:53;;;;;;;1.20;0.70;;;15.80;76.80;;;;;;913264;154;27319;-75
2023/03/10 12:41:25;;;;;;;0.98;0.78;;;15.80;77.30;;;;;;900190;155;27503;-75
2023/03/10 12:44:01;;;;;;;0.55;0.55;;;15.80;77.50;;;;;;910700;154;27401;-75
2023/03/10 12:46:42;;;;;;;1.35;0.60;;;15.90;77.40;;;;;;903768;154;27398;-75
2023/03/10 12:49:36;;;;;;;0.40;0.35;;;16.00;77.00;;;;;;903473;155;27365;-76
2023/03/10 12:52:21;;;;;;;1.22;0.70;;;16.00;76.70;;;;;;918482;152;27391;-76